Rife, Pennsylvania
Current Conditions -  °F | °C
As of 8:53 PM on Monday 20 Oct 2014 (Local Time) from KSEG Reporting Station
Overcast Overcast  
Wind Chill: 54°   Ceiling: 9000
Heat Index: 54°   Visibility: 10mi
Dew Point: 42°   Wind: 3mph
Humidity: 64%   Direction: 350°N
Pressure: 29.93"   Gusts: NA
Location:  40.5877°N, 76.8837°W
Report Text: KSEG 210053Z AUTO 35003KT 10SM OVC090 12/06 A2993 RMK AO2 SLP137 T01220056
Loading
Personal Weather Stations






























Interactive Weather Map
Tropical Storm Tracking
New forecast layout! Learn more

10-Day Weather Forecast

Advertisements
Track Severe Weather on mobile